Time;durP1;ratioP1;P1;durP2;ratioP2;P2;SDS_P1;SDS_P2;PMS_P1;PMS_P2;Temp;Humidity;BMP_temperature;BMP_pressure;BME280_temperature;BME280_humidity;BME280_pressure;Samples;Min_cycle;Max_cycle;Signal;HPM_P1;HPM_P2
2022/10/26 00:01:58;;;;;;;8.20;7.40;;;;;;;;;;5050958;28;20203;-46
2022/10/26 00:04:24;;;;;;;9.10;8.20;;;;;;;;;;5051986;28;20275;-46
2022/10/26 00:06:50;;;;;;;9.50;8.23;;;;;;;;;;5052343;28;20622;-46
2022/10/26 00:09:16;;;;;;;10.93;8.63;;;;;;;;;;5052330;28;20251;-45
2022/10/26 00:11:44;;;;;;;10.47;7.63;;;;;;;;;;5052146;28;20315;-45
2022/10/26 00:14:10;;;;;;;8.97;7.07;;;;;;;;;;5052510;28;20244;-46
2022/10/26 00:16:36;;;;;;;8.40;7.33;;;;;;;;;;5051345;28;20677;-46
2022/10/26 00:19:02;;;;;;;7.97;7.27;;;;;;;;;;5051565;28;20210;-46
2022/10/26 00:21:28;;;;;;;8.70;7.77;;;;;;;;;;5052106;28;20196;-46
2022/10/26 00:23:54;;;;;;;8.30;7.50;;;;;;;;;;5051779;28;20196;-46
2022/10/26 00:26:20;;;;;;;9.03;8.13;;;;;;;;;;5052441;28;20227;-46
2022/10/26 00:28:47;;;;;;;9.97;7.80;;;;;;;;;;5052038;28;20250;-47
2022/10/26 00:31:14;;;;;;;8.30;7.40;;;;;;;;;;5051975;28;20258;-46
2022/10/26 00:33:40;;;;;;;8.10;7.30;;;;;;;;;;5051959;28;20200;-46
2022/10/26 00:36:08;;;;;;;7.50;6.77;;;;;;;;;;5051072;28;20204;-46
2022/10/26 00:38:34;;;;;;;7.20;6.50;;;;;;;;;;5051510;28;20204;-46
2022/10/26 00:41:00;;;;;;;7.93;6.87;;;;;;;;;;5050255;28;20196;-45
2022/10/26 00:43:34;;;;;;;8.10;7.33;;;;;;;;;;5051930;28;20210;-46
2022/10/26 00:46:02;;;;;;;7.17;6.47;;;;;;;;;;5051998;28;20196;-45
2022/10/26 00:48:30;;;;;;;8.77;6.77;;;;;;;;;;5051608;28;20210;-46
2022/10/26 00:50:58;;;;;;;9.30;7.23;;;;;;;;;;5051525;28;20271;-45
2022/10/26 00:53:24;;;;;;;7.60;6.90;;;;;;;;;;5049617;28;20661;-46
2022/10/26 00:55:52;;;;;;;7.47;6.77;;;;;;;;;;5051838;28;20568;-45
2022/10/26 00:58:18;;;;;;;8.83;7.07;;;;;;;;;;5051710;28;20204;-45
2022/10/26 01:00:45;;;;;;;7.53;6.80;;;;;;;;;;5051474;28;20196;-46
2022/10/26 01:03:12;;;;;;;8.57;7.00;;;;;;;;;;5051612;28;20196;-45
2022/10/26 01:05:40;;;;;;;7.83;6.67;;;;;;;;;;5050671;28;20232;-46
2022/10/26 01:08:07;;;;;;;8.23;6.47;;;;;;;;;;5051795;28;20710;-45
2022/10/26 01:10:34;;;;;;;7.80;7.03;;;;;;;;;;5049897;28;20338;-46
2022/10/26 01:13:00;;;;;;;8.40;7.50;;;;;;;;;;5050189;28;20571;-46
2022/10/26 01:15:30;;;;;;;7.37;6.67;;;;;;;;;;5051627;28;20200;-45
2022/10/26 01:18:01;;;;;;;7.47;6.67;;;;;;;;;;5051799;28;20620;-45
2022/10/26 01:20:42;;;;;;;7.87;7.07;;;;;;;;;;5051040;28;20192;-45
2022/10/26 01:23:15;;;;;;;8.13;7.27;;;;;;;;;;5049602;28;20235;-46
2022/10/26 01:25:52;;;;;;;7.77;6.97;;;;;;;;;;5051656;28;20292;-45
2022/10/26 01:28:26;;;;;;;11.53;7.60;;;;;;;;;;5051806;28;20200;-46
2022/10/26 01:30:55;;;;;;;9.77;6.90;;;;;;;;;;5051779;28;20231;-46
2022/10/26 01:33:27;;;;;;;7.63;6.73;;;;;;;;;;5051673;28;20243;-45
2022/10/26 01:35:56;;;;;;;8.03;6.80;;;;;;;;;;5051614;28;20211;-46
2022/10/26 01:38:26;;;;;;;7.13;6.50;;;;;;;;;;5051517;28;20672;-45
2022/10/26 01:40:54;;;;;;;7.50;6.80;;;;;;;;;;5051753;28;20192;-45
2022/10/26 01:43:20;;;;;;;8.17;7.47;;;;;;;;;;5051565;28;20288;-45
2022/10/26 01:45:47;;;;;;;7.43;6.80;;;;;;;;;;5051413;28;20212;-45
2022/10/26 01:48:17;;;;;;;7.27;6.57;;;;;;;;;;5051554;28;20563;-45
2022/10/26 01:50:44;;;;;;;7.97;6.73;;;;;;;;;;5051039;28;20290;-46
2022/10/26 01:53:11;;;;;;;8.77;7.10;;;;;;;;;;5051539;28;20210;-45
2022/10/26 01:55:44;;;;;;;7.80;6.87;;;;;;;;;;5051334;28;20196;-45
2022/10/26 01:58:15;;;;;;;8.13;6.67;;;;;;;;;;5051501;28;20272;-45
2022/10/26 02:00:47;;;;;;;8.53;7.73;;;;;;;;;;5051403;28;20177;-45
2022/10/26 02:03:19;;;;;;;7.17;6.43;;;;;;;;;;5050995;28;20235;-46
2022/10/26 02:05:51;;;;;;;9.17;6.77;;;;;;;;;;5051073;28;20689;-45
2022/10/26 02:08:28;;;;;;;10.93;7.30;;;;;;;;;;5051151;28;20216;-46
2022/10/26 02:11:01;;;;;;;7.23;6.60;;;;;;;;;;5051260;28;20231;-45
2022/10/26 02:13:31;;;;;;;6.77;6.07;;;;;;;;;;5051341;28;20223;-45
2022/10/26 02:16:01;;;;;;;7.10;6.40;;;;;;;;;;5051858;28;20382;-45
2022/10/26 02:18:31;;;;;;;7.63;6.43;;;;;;;;;;5054800;28;20226;-45
2022/10/26 02:20:59;;;;;;;10.67;6.33;;;;;;;;;;5054906;28;20200;-45
2022/10/26 02:23:26;;;;;;;6.63;6.03;;;;;;;;;;5054815;28;20200;-45
2022/10/26 02:25:55;;;;;;;7.30;6.50;;;;;;;;;;5054611;28;20567;-45
2022/10/26 02:28:24;;;;;;;7.33;6.23;;;;;;;;;;5053809;28;20231;-45
2022/10/26 02:30:52;;;;;;;7.20;6.53;;;;;;;;;;5054442;28;20587;-45
2022/10/26 02:33:19;;;;;;;6.80;6.20;;;;;;;;;;5054703;28;20299;-45
2022/10/26 02:35:47;;;;;;;10.23;6.50;;;;;;;;;;5054431;28;20196;-46
2022/10/26 02:38:16;;;;;;;7.40;6.63;;;;;;;;;;5054685;28;20212;-45
2022/10/26 02:40:43;;;;;;;7.70;7.00;;;;;;;;;;5054397;28;20234;-45
2022/10/26 02:43:12;;;;;;;7.53;6.20;;;;;;;;;;5054667;28;20200;-45
2022/10/26 02:45:39;;;;;;;8.30;6.43;;;;;;;;;;5054345;28;20713;-45
2022/10/26 02:48:05;;;;;;;6.97;6.30;;;;;;;;;;5054574;28;20216;-45
2022/10/26 02:50:35;;;;;;;8.03;6.40;;;;;;;;;;5054126;28;20242;-45
2022/10/26 02:53:09;;;;;;;7.57;6.87;;;;;;;;;;5054392;28;20204;-45
2022/10/26 02:55:39;;;;;;;8.40;6.40;;;;;;;;;;5054528;28;20228;-45
2022/10/26 02:58:07;;;;;;;6.50;5.90;;;;;;;;;;5054387;28;20200;-45
2022/10/26 03:00:34;;;;;;;7.63;6.63;;;;;;;;;;5054153;28;20196;-45
2022/10/26 03:03:02;;;;;;;7.80;6.73;;;;;;;;;;5054134;28;20270;-45
2022/10/26 03:05:29;;;;;;;7.70;6.40;;;;;;;;;;5053959;28;20200;-45
2022/10/26 03:07:55;;;;;;;9.13;6.53;;;;;;;;;;5053867;28;20212;-45
2022/10/26 03:10:23;;;;;;;9.37;6.43;;;;;;;;;;5053899;28;20694;-45
2022/10/26 03:12:49;;;;;;;7.70;6.10;;;;;;;;;;5053886;28;20342;-45
2022/10/26 03:15:15;;;;;;;7.53;6.20;;;;;;;;;;5053882;28;20283;-45
2022/10/26 03:17:42;;;;;;;7.30;6.50;;;;;;;;;;5053759;28;20230;-45
2022/10/26 03:20:08;;;;;;;8.57;6.57;;;;;;;;;;5053639;28;20294;-45
2022/10/26 03:22:34;;;;;;;7.07;6.10;;;;;;;;;;5053634;28;20219;-45
2022/10/26 03:25:00;;;;;;;6.13;5.53;;;;;;;;;;5053555;28;20658;-45
2022/10/26 03:27:28;;;;;;;6.70;6.00;;;;;;;;;;5052730;28;20195;-45
2022/10/26 03:29:54;;;;;;;6.10;5.50;;;;;;;;;;5053550;28;20567;-45
2022/10/26 03:32:20;;;;;;;7.10;5.83;;;;;;;;;;5052313;28;20204;-45
2022/10/26 03:34:46;;;;;;;6.77;6.07;;;;;;;;;;5053420;28;20204;-45
2022/10/26 03:37:12;;;;;;;7.87;6.43;;;;;;;;;;5053553;28;20286;-45
2022/10/26 03:39:38;;;;;;;6.27;5.77;;;;;;;;;;5053376;28;20235;-45
2022/10/26 03:42:04;;;;;;;6.83;6.10;;;;;;;;;;5053637;28;20220;-45
2022/10/26 03:44:32;;;;;;;6.73;5.73;;;;;;;;;;5053285;28;20196;-45
2022/10/26 03:46:58;;;;;;;6.10;5.50;;;;;;;;;;5053399;28;20250;-45
2022/10/26 03:49:24;;;;;;;6.37;5.30;;;;;;;;;;5053165;28;20196;-45
2022/10/26 03:51:50;;;;;;;6.40;5.80;;;;;;;;;;5053011;28;20603;-45
2022/10/26 03:54:17;;;;;;;5.90;5.33;;;;;;;;;;5053217;28;20667;-45
2022/10/26 03:56:43;;;;;;;5.93;5.33;;;;;;;;;;5052433;28;20196;-46
2022/10/26 03:59:09;;;;;;;7.17;5.63;;;;;;;;;;5053157;28;20196;-44
2022/10/26 04:01:36;;;;;;;6.10;5.50;;;;;;;;;;5052214;28;20197;-45
2022/10/26 04:04:02;;;;;;;7.07;5.90;;;;;;;;;;5052951;28;20201;-45
2022/10/26 04:06:28;;;;;;;6.83;6.13;;;;;;;;;;5052842;28;20196;-45
2022/10/26 04:09:00;;;;;;;6.67;5.83;;;;;;;;;;5052887;28;20223;-45
2022/10/26 04:11:26;;;;;;;6.60;5.90;;;;;;;;;;5052785;28;20269;-45
2022/10/26 04:13:52;;;;;;;6.20;5.60;;;;;;;;;;5052882;28;20208;-46
2022/10/26 04:16:18;;;;;;;6.07;5.50;;;;;;;;;;5052747;28;20196;-46
2022/10/26 04:18:46;;;;;;;5.80;5.30;;;;;;;;;;5052483;28;20218;-45
2022/10/26 04:21:12;;;;;;;5.77;5.20;;;;;;;;;;5052654;28;20210;-46
2022/10/26 04:23:38;;;;;;;7.57;5.27;;;;;;;;;;5052442;28;20231;-45
2022/10/26 04:26:04;;;;;;;7.50;5.63;;;;;;;;;;5052678;28;20232;-45
2022/10/26 04:28:30;;;;;;;6.73;5.97;;;;;;;;;;5052447;28;20207;-45
2022/10/26 04:30:56;;;;;;;9.33;5.90;;;;;;;;;;5052354;28;20893;-46
2022/10/26 04:33:22;;;;;;;7.47;5.67;;;;;;;;;;5051675;28;20290;-46
2022/10/26 04:35:49;;;;;;;6.60;5.73;;;;;;;;;;5051450;28;20333;-45
2022/10/26 04:38:15;;;;;;;6.80;5.30;;;;;;;;;;5052156;28;20205;-45
2022/10/26 04:40:41;;;;;;;5.37;4.87;;;;;;;;;;5052120;28;20245;-45
2022/10/26 04:43:07;;;;;;;6.93;5.20;;;;;;;;;;5051517;28;20204;-45
2022/10/26 04:45:34;;;;;;;6.17;5.67;;;;;;;;;;5051510;28;20204;-45
2022/10/26 04:48:01;;;;;;;5.53;5.03;;;;;;;;;;5052213;28;20243;-45
2022/10/26 04:50:27;;;;;;;6.37;5.77;;;;;;;;;;5051752;28;20293;-45
2022/10/26 04:52:54;;;;;;;6.67;5.20;;;;;;;;;;5052201;28;20196;-46
2022/10/26 04:55:20;;;;;;;7.83;5.70;;;;;;;;;;5052088;28;20287;-46
2022/10/26 04:57:46;;;;;;;6.13;5.60;;;;;;;;;;5051873;28;20633;-46
2022/10/26 05:00:13;;;;;;;6.77;5.70;;;;;;;;;;5052083;28;20188;-46
2022/10/26 05:02:39;;;;;;;6.37;5.53;;;;;;;;;;5051939;28;20215;-44
2022/10/26 05:05:05;;;;;;;6.07;5.10;;;;;;;;;;5051941;28;20210;-45
2022/10/26 05:07:31;;;;;;;9.13;5.60;;;;;;;;;;5051792;28;20203;-47
2022/10/26 05:09:58;;;;;;;7.50;5.47;;;;;;;;;;5051931;28;20286;-45
2022/10/26 05:12:24;;;;;;;6.27;5.67;;;;;;;;;;5051721;28;20236;-44
2022/10/26 05:14:50;;;;;;;5.43;4.93;;;;;;;;;;5051853;28;20200;-47
2022/10/26 05:17:16;;;;;;;5.93;5.30;;;;;;;;;;5051734;28;20201;-44
2022/10/26 05:19:42;;;;;;;6.03;5.43;;;;;;;;;;5051571;28;20231;-45
2022/10/26 05:22:08;;;;;;;8.13;6.13;;;;;;;;;;5051744;28;20567;-45
2022/10/26 05:24:34;;;;;;;8.07;6.03;;;;;;;;;;5051645;28;20211;-45
2022/10/26 05:27:01;;;;;;;8.83;6.13;;;;;;;;;;5051998;28;20557;-46
2022/10/26 05:29:28;;;;;;;6.60;5.70;;;;;;;;;;5051670;28;20204;-46
2022/10/26 05:31:54;;;;;;;7.03;5.77;;;;;;;;;;5051238;28;20737;-46
2022/10/26 05:34:20;;;;;;;6.47;5.87;;;;;;;;;;5051465;28;20590;-45
2022/10/26 05:36:46;;;;;;;8.20;6.37;;;;;;;;;;5051442;28;20214;-44
2022/10/26 05:39:12;;;;;;;7.47;5.60;;;;;;;;;;5051549;28;20384;-46
2022/10/26 05:41:38;;;;;;;7.77;6.17;;;;;;;;;;5050771;28;20192;-45
2022/10/26 05:44:05;;;;;;;7.23;6.07;;;;;;;;;;5050718;28;20208;-45
2022/10/26 05:46:31;;;;;;;6.27;5.40;;;;;;;;;;5050803;28;20616;-46
2022/10/26 05:48:57;;;;;;;6.77;5.67;;;;;;;;;;5047055;28;20613;-45
2022/10/26 05:51:23;;;;;;;6.33;5.73;;;;;;;;;;5053022;28;20262;-45
2022/10/26 05:53:53;;;;;;;5.93;5.33;;;;;;;;;;5055283;28;20682;-45
2022/10/26 05:56:19;;;;;;;7.27;5.93;;;;;;;;;;5055357;28;20203;-45
2022/10/26 05:58:46;;;;;;;6.60;5.90;;;;;;;;;;5054813;28;20202;-45
2022/10/26 06:01:19;;;;;;;6.80;5.50;;;;;;;;;;5054598;28;20218;-46
2022/10/26 06:03:52;;;;;;;6.33;5.73;;;;;;;;;;5054984;28;20212;-46
2022/10/26 06:06:19;;;;;;;6.13;5.53;;;;;;;;;;5055184;28;20250;-46
2022/10/26 06:08:45;;;;;;;5.80;5.23;;;;;;;;;;5055074;28;20230;-46
2022/10/26 06:11:11;;;;;;;7.33;6.20;;;;;;;;;;5053521;28;20589;-45
2022/10/26 06:13:38;;;;;;;7.13;6.43;;;;;;;;;;5055031;28;20234;-45
2022/10/26 06:16:17;;;;;;;7.67;6.90;;;;;;;;;;5055265;28;20200;-44
2022/10/26 06:18:48;;;;;;;7.63;6.20;;;;;;;;;;5054756;28;20211;-47
2022/10/26 06:21:27;;;;;;;7.47;6.00;;;;;;;;;;5054883;28;20204;-45
2022/10/26 06:23:55;;;;;;;6.13;5.53;;;;;;;;;;5054642;28;20207;-45
2022/10/26 06:26:26;;;;;;;8.73;7.00;;;;;;;;;;5054818;28;20281;-45
2022/10/26 06:28:55;;;;;;;7.63;6.87;;;;;;;;;;5055017;28;20203;-46
2022/10/26 06:31:21;;;;;;;9.27;7.17;;;;;;;;;;5054705;28;20318;-46
2022/10/26 06:33:49;;;;;;;7.07;6.37;;;;;;;;;;5054459;28;20235;-45
2022/10/26 06:36:21;;;;;;;7.30;6.40;;;;;;;;;;5054271;28;20679;-46
2022/10/26 06:38:47;;;;;;;7.63;6.43;;;;;;;;;;5054267;28;20214;-44
2022/10/26 06:41:15;;;;;;;7.23;6.10;;;;;;;;;;5052843;28;20196;-46
2022/10/26 06:43:41;;;;;;;6.30;5.67;;;;;;;;;;5054018;28;20192;-45
2022/10/26 06:46:14;;;;;;;6.37;5.77;;;;;;;;;;5051852;28;20212;-45
2022/10/26 06:48:45;;;;;;;8.40;6.20;;;;;;;;;;5053489;28;20651;-45
2022/10/26 06:51:14;;;;;;;6.43;5.73;;;;;;;;;;5054008;28;20259;-46
2022/10/26 06:53:42;;;;;;;6.53;5.67;;;;;;;;;;5054116;28;20575;-46
2022/10/26 06:56:11;;;;;;;6.87;5.60;;;;;;;;;;5053949;28;20797;-45
2022/10/26 06:58:37;;;;;;;6.30;5.70;;;;;;;;;;5053893;28;20196;-46
2022/10/26 07:01:04;;;;;;;10.23;6.60;;;;;;;;;;5054041;28;20199;-45
2022/10/26 07:03:30;;;;;;;9.50;7.07;;;;;;;;;;5050930;28;20200;-46
2022/10/26 07:05:59;;;;;;;8.83;7.07;;;;;;;;;;5053691;28;20282;-46
2022/10/26 07:08:26;;;;;;;11.87;8.57;;;;;;;;;;5053529;28;20219;-46
2022/10/26 07:10:52;;;;;;;10.77;7.93;;;;;;;;;;5053586;28;20224;-46
2022/10/26 07:13:18;;;;;;;9.40;7.30;;;;;;;;;;5053838;28;20287;-45
2022/10/26 07:15:45;;;;;;;10.77;7.20;;;;;;;;;;5053699;28;20211;-46
2022/10/26 07:18:11;;;;;;;8.50;5.90;;;;;;;;;;5053732;28;20200;-46
2022/10/26 07:20:38;;;;;;;9.37;6.53;;;;;;;;;;5053142;28;20199;-45
2022/10/26 07:23:05;;;;;;;6.17;5.43;;;;;;;;;;5051079;28;20203;-46
2022/10/26 07:25:34;;;;;;;6.20;5.60;;;;;;;;;;5053532;28;20725;-45
2022/10/26 07:28:10;;;;;;;6.50;5.00;;;;;;;;;;5052231;28;20204;-46
2022/10/26 07:30:37;;;;;;;5.37;4.87;;;;;;;;;;5053478;28;20463;-44
2022/10/26 07:33:03;;;;;;;7.00;5.10;;;;;;;;;;5053552;28;20202;-43
2022/10/26 07:35:30;;;;;;;5.90;5.30;;;;;;;;;;5052052;28;20630;-44
2022/10/26 07:37:57;;;;;;;6.93;5.87;;;;;;;;;;5053554;28;20273;-45
2022/10/26 07:40:23;;;;;;;5.97;4.93;;;;;;;;;;5053411;28;20196;-45
2022/10/26 07:42:50;;;;;;;7.47;5.73;;;;;;;;;;5052605;28;20201;-45
2022/10/26 07:45:16;;;;;;;8.37;6.83;;;;;;;;;;5051629;28;20287;-44
2022/10/26 07:47:42;;;;;;;8.47;7.00;;;;;;;;;;5052278;28;20250;-44
2022/10/26 07:50:10;;;;;;;7.67;6.83;;;;;;;;;;5052991;28;20224;-45
2022/10/26 07:52:37;;;;;;;6.80;6.07;;;;;;;;;;5053128;28;20777;-44
2022/10/26 07:55:04;;;;;;;9.17;6.20;;;;;;;;;;5052803;28;20279;-44
2022/10/26 07:57:30;;;;;;;7.37;6.17;;;;;;;;;;5053029;28;20279;-44
2022/10/26 07:59:57;;;;;;;9.10;6.20;;;;;;;;;;5052949;28;20844;-46
2022/10/26 08:02:23;;;;;;;6.60;5.87;;;;;;;;;;5052999;28;20196;-45
2022/10/26 08:04:49;;;;;;;6.80;5.87;;;;;;;;;;5052837;28;20667;-44
2022/10/26 08:07:16;;;;;;;9.13;6.43;;;;;;;;;;5052814;28;20697;-45
2022/10/26 08:09:42;;;;;;;7.30;5.80;;;;;;;;;;5052780;28;20685;-44
2022/10/26 08:12:08;;;;;;;7.47;5.73;;;;;;;;;;5052829;28;20224;-44
2022/10/26 08:14:34;;;;;;;6.40;5.80;;;;;;;;;;5052581;28;20638;-44
2022/10/26 08:17:01;;;;;;;9.23;6.17;;;;;;;;;;5052849;28;20257;-45
2022/10/26 08:19:27;;;;;;;8.37;6.43;;;;;;;;;;5052610;28;20236;-45
2022/10/26 08:21:53;;;;;;;8.60;6.30;;;;;;;;;;5052550;28;20243;-45
2022/10/26 08:24:19;;;;;;;9.70;6.57;;;;;;;;;;5052534;28;20192;-45
2022/10/26 08:26:45;;;;;;;8.70;6.40;;;;;;;;;;5052404;28;20200;-44
2022/10/26 08:29:11;;;;;;;7.57;6.07;;;;;;;;;;5052437;28;20571;-44
2022/10/26 08:31:37;;;;;;;10.07;6.60;;;;;;;;;;5052388;28;20254;-44
2022/10/26 08:34:05;;;;;;;8.37;6.30;;;;;;;;;;5052263;28;20658;-45
2022/10/26 08:36:31;;;;;;;9.10;6.27;;;;;;;;;;5052231;28;20609;-45
2022/10/26 08:38:57;;;;;;;7.63;6.00;;;;;;;;;;5052366;28;20246;-45
2022/10/26 08:41:26;;;;;;;7.47;5.50;;;;;;;;;;5052356;28;20569;-45
2022/10/26 08:43:54;;;;;;;7.20;5.27;;;;;;;;;;5052088;28;20279;-45
2022/10/26 08:46:21;;;;;;;10.03;6.23;;;;;;;;;;5052172;28;20204;-45
2022/10/26 08:48:51;;;;;;;8.17;5.63;;;;;;;;;;5051974;28;20248;-46
2022/10/26 08:51:20;;;;;;;7.80;4.87;;;;;;;;;;5051883;28;20242;-46
2022/10/26 08:53:48;;;;;;;7.47;5.00;;;;;;;;;;5051895;28;20572;-45
2022/10/26 08:56:17;;;;;;;6.47;5.10;;;;;;;;;;5052018;28;20732;-45
2022/10/26 08:58:46;;;;;;;5.63;4.77;;;;;;;;;;5051940;28;20200;-45
2022/10/26 09:01:12;;;;;;;6.50;4.97;;;;;;;;;;5051801;28;20203;-45
2022/10/26 09:03:38;;;;;;;9.40;4.33;;;;;;;;;;5051701;28;20200;-45
2022/10/26 09:06:09;;;;;;;6.37;4.23;;;;;;;;;;5051970;28;20272;-45
2022/10/26 09:08:41;;;;;;;5.43;4.40;;;;;;;;;;5051970;28;20298;-45
2022/10/26 09:11:13;;;;;;;6.93;3.97;;;;;;;;;;5051855;28;20231;-45
2022/10/26 09:13:44;;;;;;;6.30;3.33;;;;;;;;;;5051938;28;20200;-44
2022/10/26 09:16:15;;;;;;;5.17;3.13;;;;;;;;;;5051673;28;20200;-45
2022/10/26 09:18:46;;;;;;;6.27;3.40;;;;;;;;;;5051616;28;20234;-45
2022/10/26 09:21:28;;;;;;;3.07;2.63;;;;;;;;;;5051715;28;20216;-45
2022/10/26 09:24:00;;;;;;;6.13;2.97;;;;;;;;;;5051567;28;20205;-45
2022/10/26 09:26:32;;;;;;;5.57;2.90;;;;;;;;;;5051050;28;20210;-45
2022/10/26 09:29:01;;;;;;;6.77;2.90;;;;;;;;;;5051948;28;20275;-44
2022/10/26 09:31:27;;;;;;;4.80;2.70;;;;;;;;;;5051669;28;20220;-45
2022/10/26 09:33:56;;;;;;;4.30;2.60;;;;;;;;;;5051388;28;20220;-45
2022/10/26 09:36:22;;;;;;;4.07;2.47;;;;;;;;;;5051624;28;20269;-45
2022/10/26 09:38:51;;;;;;;4.63;2.77;;;;;;;;;;5051632;28;20196;-45
2022/10/26 09:41:22;;;;;;;4.27;2.43;;;;;;;;;;5051507;28;20192;-45
2022/10/26 09:43:50;;;;;;;3.30;2.20;;;;;;;;;;5051487;28;20203;-46
2022/10/26 09:46:20;;;;;;;4.20;2.13;;;;;;;;;;5051404;28;20266;-46
2022/10/26 09:48:48;;;;;;;4.77;2.43;;;;;;;;;;5051348;28;20617;-45
2022/10/26 09:51:15;;;;;;;6.00;2.37;;;;;;;;;;5051164;28;20269;-46
2022/10/26 09:53:41;;;;;;;4.50;2.10;;;;;;;;;;5051306;28;20660;-45
2022/10/26 09:56:09;;;;;;;6.30;2.30;;;;;;;;;;5051310;28;20210;-46
2022/10/26 09:58:40;;;;;;;4.73;2.27;;;;;;;;;;5051252;28;20251;-46
2022/10/26 10:01:06;;;;;;;3.73;2.30;;;;;;;;;;5051549;28;20218;-46
2022/10/26 10:03:32;;;;;;;5.27;2.63;;;;;;;;;;5051395;28;20283;-46
2022/10/26 10:06:14;;;;;;;5.90;2.80;;;;;;;;;;5051247;28;20276;-46
2022/10/26 10:08:40;;;;;;;4.83;2.43;;;;;;;;;;5051115;28;20228;-47
2022/10/26 10:11:07;;;;;;;3.97;2.53;;;;;;;;;;5051349;28;20330;-47
2022/10/26 10:13:35;;;;;;;7.40;3.20;;;;;;;;;;5051092;28;20298;-45
2022/10/26 10:16:11;;;;;;;6.90;2.87;;;;;;;;;;5051217;28;20203;-46
2022/10/26 10:18:38;;;;;;;4.10;2.70;;;;;;;;;;5051067;28;20207;-47
2022/10/26 10:21:05;;;;;;;6.37;3.63;;;;;;;;;;5051033;28;20198;-45
2022/10/26 10:23:31;;;;;;;5.33;3.07;;;;;;;;;;5051018;28;20203;-46
2022/10/26 10:25:59;;;;;;;4.33;2.80;;;;;;;;;;5050953;28;20573;-46
2022/10/26 10:28:25;;;;;;;6.30;2.90;;;;;;;;;;5051107;28;20219;-46
2022/10/26 10:30:53;;;;;;;7.27;3.07;;;;;;;;;;5051011;28;20242;-46
2022/10/26 10:33:20;;;;;;;4.37;2.77;;;;;;;;;;5051163;28;20272;-45
2022/10/26 10:35:48;;;;;;;5.90;3.00;;;;;;;;;;5051183;28;20197;-45
2022/10/26 10:38:16;;;;;;;5.00;3.40;;;;;;;;;;5054526;28;20212;-46
2022/10/26 10:40:48;;;;;;;4.00;3.00;;;;;;;;;;5053942;28;20207;-45
2022/10/26 10:43:15;;;;;;;6.77;3.17;;;;;;;;;;5054322;28;20658;-46
2022/10/26 10:45:46;;;;;;;6.00;3.30;;;;;;;;;;5054281;28;20725;-45
2022/10/26 10:48:14;;;;;;;6.03;3.00;;;;;;;;;;5054241;28;20272;-45
2022/10/26 10:50:50;;;;;;;4.10;2.70;;;;;;;;;;5054088;28;20763;-45
2022/10/26 10:53:18;;;;;;;5.07;2.80;;;;;;;;;;5054498;28;20303;-44
2022/10/26 10:55:47;;;;;;;4.17;2.90;;;;;;;;;;5054229;28;20667;-45
2022/10/26 10:58:16;;;;;;;7.00;3.00;;;;;;;;;;5054268;28;20254;-44
2022/10/26 11:00:43;;;;;;;6.53;3.33;;;;;;;;;;5054231;28;20238;-45
2022/10/26 11:03:24;;;;;;;5.83;3.43;;;;;;;;;;5054070;28;20666;-45
2022/10/26 11:05:55;;;;;;;4.93;2.50;;;;;;;;;;5054194;28;20976;-45
2022/10/26 11:08:26;;;;;;;7.40;2.90;;;;;;;;;;5054044;28;20224;-45
2022/10/26 11:10:57;;;;;;;6.57;2.87;;;;;;;;;;5053945;28;20659;-45
2022/10/26 11:13:25;;;;;;;4.23;2.60;;;;;;;;;;5053998;28;20203;-45
2022/10/26 11:15:54;;;;;;;6.30;2.77;;;;;;;;;;5053746;28;20200;-45
2022/10/26 11:18:21;;;;;;;4.50;2.63;;;;;;;;;;5053782;28;20610;-45
2022/10/26 11:20:49;;;;;;;3.67;2.40;;;;;;;;;;5053643;28;20210;-44
2022/10/26 11:23:19;;;;;;;4.37;2.67;;;;;;;;;;5053823;28;20208;-45
2022/10/26 11:25:49;;;;;;;5.80;2.77;;;;;;;;;;5053468;28;20230;-45
2022/10/26 11:28:18;;;;;;;3.93;2.70;;;;;;;;;;5053772;28;20196;-46
2022/10/26 11:30:45;;;;;;;5.87;2.70;;;;;;;;;;5053332;28;20296;-46
2022/10/26 11:33:15;;;;;;;4.77;2.50;;;;;;;;;;5053600;28;20549;-45
2022/10/26 11:35:43;;;;;;;3.93;2.80;;;;;;;;;;5053327;28;20209;-45
2022/10/26 11:38:12;;;;;;;6.30;2.80;;;;;;;;;;5053400;28;20227;-45
2022/10/26 11:40:42;;;;;;;3.80;2.50;;;;;;;;;;5053366;28;20197;-45
2022/10/26 11:43:11;;;;;;;7.37;2.70;;;;;;;;;;5053408;28;20203;-45
2022/10/26 11:45:38;;;;;;;6.13;2.40;;;;;;;;;;5053262;28;20197;-46
2022/10/26 11:48:09;;;;;;;3.53;2.17;;;;;;;;;;5052631;28;20218;-46
2022/10/26 11:50:38;;;;;;;3.77;2.30;;;;;;;;;;5052919;28;20307;-46
2022/10/26 11:53:08;;;;;;;6.00;2.40;;;;;;;;;;5053225;28;20210;-46
2022/10/26 11:55:34;;;;;;;6.80;2.60;;;;;;;;;;5053087;28;20242;-46
2022/10/26 11:58:03;;;;;;;6.93;2.20;;;;;;;;;;5053080;28;20202;-46
2022/10/26 12:00:29;;;;;;;5.43;2.63;;;;;;;;;;5052966;28;20287;-45
2022/10/26 12:02:56;;;;;;;5.87;2.30;;;;;;;;;;5052925;28;20204;-45
2022/10/26 12:05:24;;;;;;;3.63;2.10;;;;;;;;;;5053080;28;20219;-45
2022/10/26 12:07:52;;;;;;;2.90;2.13;;;;;;;;;;5052828;28;20270;-45
2022/10/26 12:10:24;;;;;;;2.60;2.10;;;;;;;;;;5052812;28;20303;-45
2022/10/26 12:12:51;;;;;;;3.33;2.13;;;;;;;;;;5052596;28;20227;-45
2022/10/26 12:15:23;;;;;;;4.77;2.40;;;;;;;;;;5052633;28;20200;-49
2022/10/26 12:17:51;;;;;;;4.07;2.30;;;;;;;;;;5052483;28;20201;-45
2022/10/26 12:20:35;;;;;;;3.17;1.97;;;;;;;;;;5052586;28;20279;-45
2022/10/26 12:23:03;;;;;;;6.17;2.30;;;;;;;;;;5052524;28;20202;-46
2022/10/26 12:25:29;;;;;;;6.27;2.47;;;;;;;;;;5052488;28;20214;-45
2022/10/26 12:27:57;;;;;;;3.67;2.40;;;;;;;;;;5052368;28;20568;-52
2022/10/26 12:30:26;;;;;;;3.83;2.37;;;;;;;;;;5052402;28;20275;-45
2022/10/26 12:32:53;;;;;;;6.50;2.27;;;;;;;;;;5052139;28;20591;-46
2022/10/26 12:35:40;;;;;;;5.27;2.00;;;;;;;;;;5052337;28;20207;-46
2022/10/26 12:38:24;;;;;;;2.80;2.10;;;;;;;;;;5052462;28;20197;-46
2022/10/26 12:41:07;;;;;;;2.73;1.80;;;;;;;;;;5052138;28;20214;-46
2022/10/26 12:43:33;;;;;;;5.47;2.20;;;;;;;;;;5052334;28;20226;-46
2022/10/26 12:46:18;;;;;;;4.73;2.23;;;;;;;;;;5050957;28;20205;-46
2022/10/26 12:48:46;;;;;;;4.97;2.37;;;;;;;;;;5052019;28;20195;-46
2022/10/26 12:51:38;;;;;;;6.43;2.50;;;;;;;;;;5051911;28;20264;-46
2022/10/26 12:54:09;;;;;;;5.57;2.13;;;;;;;;;;5051644;28;20745;-46
2022/10/26 12:56:41;;;;;;;5.60;2.13;;;;;;;;;;5051876;28;20203;-46
2022/10/26 12:59:22;;;;;;;3.83;1.93;;;;;;;;;;5050312;28;20687;-46
2022/10/26 13:02:05;;;;;;;2.67;2.10;;;;;;;;;;5051449;28;20192;-46
2022/10/26 13:05:02;;;;;;;4.90;2.40;;;;;;;;;;5051838;28;20607;-46
2022/10/26 13:07:33;;;;;;;3.90;2.00;;;;;;;;;;5047865;28;20261;-46
2022/10/26 13:10:00;;;;;;;5.00;1.90;;;;;;;;;;5051407;28;20251;-46
2022/10/26 13:12:27;;;;;;;4.20;1.97;;;;;;;;;;5051387;28;20228;-46
2022/10/26 13:14:59;;;;;;;4.83;1.80;;;;;;;;;;5051490;28;20194;-46
2022/10/26 13:17:26;;;;;;;3.93;2.00;;;;;;;;;;5051868;28;20698;-46
2022/10/26 13:19:55;;;;;;;3.57;1.90;;;;;;;;;;5051229;28;20247;-46
2022/10/26 13:22:23;;;;;;;3.80;1.60;;;;;;;;;;5051267;28;20199;-46
2022/10/26 13:24:51;;;;;;;5.00;2.00;;;;;;;;;;5049907;28;20258;-46
2022/10/26 13:27:22;;;;;;;4.20;1.90;;;;;;;;;;5051789;28;20207;-46
2022/10/26 13:30:21;;;;;;;3.97;1.93;;;;;;;;;;5051477;28;20246;-46
2022/10/26 13:32:52;;;;;;;4.20;1.83;;;;;;;;;;4989421;28;20301;-46
2022/10/26 13:35:19;;;;;;;3.00;1.90;;;;;;;;;;4989855;28;20684;-46
2022/10/26 13:37:48;;;;;;;3.93;1.67;;;;;;;;;;5018706;28;20206;-46
2022/10/26 13:40:17;;;;;;;6.00;2.03;;;;;;;;;;5051445;28;20207;-45
2022/10/26 13:42:45;;;;;;;3.47;1.60;;;;;;;;;;5049660;28;20204;-46
2022/10/26 13:45:13;;;;;;;4.33;2.00;;;;;;;;;;5051137;28;20802;-46
2022/10/26 13:47:42;;;;;;;3.93;1.80;;;;;;;;;;5050940;28;20279;-45
2022/10/26 13:50:12;;;;;;;4.00;1.90;;;;;;;;;;5051039;28;20193;-46
2022/10/26 13:52:40;;;;;;;3.07;1.90;;;;;;;;;;5050602;28;20570;-46
2022/10/26 13:55:12;;;;;;;4.53;1.63;;;;;;;;;;5050294;28;20291;-46
2022/10/26 13:57:39;;;;;;;2.00;1.50;;;;;;;;;;5051440;28;20283;-46
2022/10/26 14:00:08;;;;;;;7.37;1.60;;;;;;;;;;5051206;28;20656;-46
2022/10/26 14:02:34;;;;;;;4.63;1.80;;;;;;;;;;5051266;28;20196;-46
2022/10/26 14:05:00;;;;;;;2.57;1.70;;;;;;;;;;5050365;28;20219;-46
2022/10/26 14:07:36;;;;;;;4.17;1.90;;;;;;;;;;5051187;28;20207;-46
2022/10/26 14:10:02;;;;;;;4.23;1.70;;;;;;;;;;5050940;28;20203;-46
2022/10/26 14:12:31;;;;;;;2.10;1.60;;;;;;;;;;5053317;28;20232;-46
2022/10/26 14:15:02;;;;;;;3.97;1.87;;;;;;;;;;5054318;28;20581;-46
2022/10/26 14:17:28;;;;;;;5.10;1.57;;;;;;;;;;5054922;28;20204;-45
2022/10/26 14:19:54;;;;;;;2.43;1.70;;;;;;;;;;5054902;28;20846;-46
2022/10/26 14:22:21;;;;;;;3.13;1.50;;;;;;;;;;5054994;28;20694;-46
2022/10/26 14:24:51;;;;;;;5.20;1.30;;;;;;;;;;5054862;28;20238;-46
2022/10/26 14:27:18;;;;;;;5.03;1.87;;;;;;;;;;5054739;28;20197;-46
2022/10/26 14:29:45;;;;;;;4.07;1.50;;;;;;;;;;5054330;28;20680;-46
2022/10/26 14:32:26;;;;;;;5.77;1.77;;;;;;;;;;5054543;28;20231;-46
2022/10/26 14:34:53;;;;;;;4.27;1.53;;;;;;;;;;5054331;28;20588;-46
2022/10/26 14:37:24;;;;;;;3.60;1.70;;;;;;;;;;5054710;28;20269;-46
2022/10/26 14:39:50;;;;;;;3.87;1.60;;;;;;;;;;5054644;28;20203;-45
2022/10/26 14:42:21;;;;;;;2.90;1.70;;;;;;;;;;5051980;28;20737;-46
2022/10/26 14:44:49;;;;;;;3.67;1.60;;;;;;;;;;5054525;28;20200;-45
2022/10/26 14:47:18;;;;;;;4.40;2.03;;;;;;;;;;5053715;28;20206;-46
2022/10/26 14:49:45;;;;;;;5.07;2.00;;;;;;;;;;5054186;28;20199;-46
2022/10/26 14:52:16;;;;;;;3.87;1.73;;;;;;;;;;5053916;28;20267;-46